sensor_id;sensor_type;location;lat;lon;timestamp;P1;durP1;ratioP1;P2;durP2;ratioP2
17761;SDS011;9005;48.838;10.112;2023-04-21T00:00:48;5.70;;;4.25;;
17761;SDS011;9005;48.838;10.112;2023-04-21T00:03:17;5.65;;;4.38;;
17761;SDS011;9005;48.838;10.112;2023-04-21T00:05:46;4.57;;;3.90;;
17761;SDS011;9005;48.838;10.112;2023-04-21T00:08:13;4.57;;;3.90;;
17761;SDS011;9005;48.838;10.112;2023-04-21T00:10:40;7.32;;;4.30;;
17761;SDS011;9005;48.838;10.112;2023-04-21T00:13:06;6.50;;;4.28;;
17761;SDS011;9005;48.838;10.112;2023-04-21T00:15:33;9.95;;;5.05;;
17761;SDS011;9005;48.838;10.112;2023-04-21T00:18:00;7.03;;;6.15;;
17761;SDS011;9005;48.838;10.112;2023-04-21T00:20:29;8.25;;;5.32;;
17761;SDS011;9005;48.838;10.112;2023-04-21T00:22:56;6.45;;;4.90;;
17761;SDS011;9005;48.838;10.112;2023-04-21T00:25:23;5.85;;;3.90;;
17761;SDS011;9005;48.838;10.112;2023-04-21T00:27:50;6.03;;;4.15;;
17761;SDS011;9005;48.838;10.112;2023-04-21T00:30:17;6.45;;;4.60;;
17761;SDS011;9005;48.838;10.112;2023-04-21T00:32:43;6.35;;;4.57;;
17761;SDS011;9005;48.838;10.112;2023-04-21T00:35:11;6.95;;;4.47;;
17761;SDS011;9005;48.838;10.112;2023-04-21T00:37:39;4.75;;;4.10;;
17761;SDS011;9005;48.838;10.112;2023-04-21T00:40:06;5.30;;;4.63;;
17761;SDS011;9005;48.838;10.112;2023-04-21T00:42:34;4.60;;;3.97;;
17761;SDS011;9005;48.838;10.112;2023-04-21T00:45:01;4.65;;;4.07;;
17761;SDS011;9005;48.838;10.112;2023-04-21T00:47:27;4.50;;;3.80;;
17761;SDS011;9005;48.838;10.112;2023-04-21T00:49:55;6.28;;;4.50;;
17761;SDS011;9005;48.838;10.112;2023-04-21T00:52:22;6.00;;;4.75;;
17761;SDS011;9005;48.838;10.112;2023-04-21T00:54:51;4.82;;;4.18;;
17761;SDS011;9005;48.838;10.112;2023-04-21T00:57:18;4.97;;;4.07;;
17761;SDS011;9005;48.838;10.112;2023-04-21T00:59:46;4.50;;;4.00;;
17761;SDS011;9005;48.838;10.112;2023-04-21T01:02:13;3.50;;;3.20;;
17761;SDS011;9005;48.838;10.112;2023-04-21T01:04:40;4.72;;;3.90;;
17761;SDS011;9005;48.838;10.112;2023-04-21T01:07:09;3.80;;;3.40;;
17761;SDS011;9005;48.838;10.112;2023-04-21T01:09:36;3.83;;;3.35;;
17761;SDS011;9005;48.838;10.112;2023-04-21T01:12:05;4.25;;;3.42;;
17761;SDS011;9005;48.838;10.112;2023-04-21T01:14:33;3.20;;;2.90;;
17761;SDS011;9005;48.838;10.112;2023-04-21T01:17:00;2.90;;;2.70;;
17761;SDS011;9005;48.838;10.112;2023-04-21T01:19:31;3.65;;;2.90;;
17761;SDS011;9005;48.838;10.112;2023-04-21T01:22:01;4.25;;;2.97;;
17761;SDS011;9005;48.838;10.112;2023-04-21T01:24:35;3.95;;;3.53;;
17761;SDS011;9005;48.838;10.112;2023-04-21T01:27:04;3.35;;;3.05;;
17761;SDS011;9005;48.838;10.112;2023-04-21T01:29:34;3.50;;;3.20;;
17761;SDS011;9005;48.838;10.112;2023-04-21T01:32:05;3.67;;;3.25;;
17761;SDS011;9005;48.838;10.112;2023-04-21T01:34:33;4.53;;;4.05;;
17761;SDS011;9005;48.838;10.112;2023-04-21T01:37:01;3.97;;;3.58;;
17761;SDS011;9005;48.838;10.112;2023-04-21T01:39:28;4.68;;;3.53;;
17761;SDS011;9005;48.838;10.112;2023-04-21T01:41:55;4.90;;;3.88;;
17761;SDS011;9005;48.838;10.112;2023-04-21T01:44:23;4.30;;;3.90;;
17761;SDS011;9005;48.838;10.112;2023-04-21T01:46:50;4.22;;;3.83;;
17761;SDS011;9005;48.838;10.112;2023-04-21T01:49:17;4.95;;;4.20;;
17761;SDS011;9005;48.838;10.112;2023-04-21T01:51:44;5.53;;;4.40;;
17761;SDS011;9005;48.838;10.112;2023-04-21T01:54:12;4.15;;;3.75;;
17761;SDS011;9005;48.838;10.112;2023-04-21T01:56:39;4.05;;;3.65;;
17761;SDS011;9005;48.838;10.112;2023-04-21T01:59:06;4.18;;;3.78;;
17761;SDS011;9005;48.838;10.112;2023-04-21T02:01:32;4.53;;;4.10;;
17761;SDS011;9005;48.838;10.112;2023-04-21T02:04:00;4.40;;;3.95;;
17761;SDS011;9005;48.838;10.112;2023-04-21T02:06:27;5.13;;;4.20;;
17761;SDS011;9005;48.838;10.112;2023-04-21T02:08:55;3.90;;;3.50;;
17761;SDS011;9005;48.838;10.112;2023-04-21T02:11:23;3.38;;;3.08;;
17761;SDS011;9005;48.838;10.112;2023-04-21T02:13:50;4.88;;;3.30;;
17761;SDS011;9005;48.838;10.112;2023-04-21T02:16:17;3.75;;;3.38;;
17761;SDS011;9005;48.838;10.112;2023-04-21T02:18:44;3.65;;;3.35;;
17761;SDS011;9005;48.838;10.112;2023-04-21T02:21:11;3.72;;;3.33;;
17761;SDS011;9005;48.838;10.112;2023-04-21T02:23:38;3.97;;;3.00;;
17761;SDS011;9005;48.838;10.112;2023-04-21T02:26:05;3.40;;;3.10;;
17761;SDS011;9005;48.838;10.112;2023-04-21T02:28:33;3.83;;;3.53;;
17761;SDS011;9005;48.838;10.112;2023-04-21T02:30:59;3.67;;;3.38;;
17761;SDS011;9005;48.838;10.112;2023-04-21T02:33:26;3.30;;;3.00;;
17761;SDS011;9005;48.838;10.112;2023-04-21T02:35:53;3.67;;;3.30;;
17761;SDS011;9005;48.838;10.112;2023-04-21T02:38:19;3.20;;;2.90;;
17761;SDS011;9005;48.838;10.112;2023-04-21T02:40:46;5.10;;;3.28;;
17761;SDS011;9005;48.838;10.112;2023-04-21T02:43:14;3.38;;;2.97;;
17761;SDS011;9005;48.838;10.112;2023-04-21T02:45:42;3.72;;;3.05;;
17761;SDS011;9005;48.838;10.112;2023-04-21T02:48:10;3.50;;;3.20;;
17761;SDS011;9005;48.838;10.112;2023-04-21T02:50:36;3.05;;;2.85;;
17761;SDS011;9005;48.838;10.112;2023-04-21T02:53:04;3.67;;;3.38;;
17761;SDS011;9005;48.838;10.112;2023-04-21T02:55:30;3.72;;;3.25;;
17761;SDS011;9005;48.838;10.112;2023-04-21T02:57:57;3.90;;;3.00;;
17761;SDS011;9005;48.838;10.112;2023-04-21T03:00:24;3.83;;;3.20;;
17761;SDS011;9005;48.838;10.112;2023-04-21T03:02:52;4.38;;;2.97;;
17761;SDS011;9005;48.838;10.112;2023-04-21T03:05:19;4.47;;;3.38;;
17761;SDS011;9005;48.838;10.112;2023-04-21T03:07:45;3.17;;;2.88;;
17761;SDS011;9005;48.838;10.112;2023-04-21T03:10:12;3.28;;;2.97;;
17761;SDS011;9005;48.838;10.112;2023-04-21T03:12:39;3.13;;;2.83;;
17761;SDS011;9005;48.838;10.112;2023-04-21T03:15:06;3.80;;;2.70;;
17761;SDS011;9005;48.838;10.112;2023-04-21T03:17:33;3.55;;;3.25;;
17761;SDS011;9005;48.838;10.112;2023-04-21T03:20:01;3.30;;;3.00;;
17761;SDS011;9005;48.838;10.112;2023-04-21T03:22:31;3.50;;;3.17;;
17761;SDS011;9005;48.838;10.112;2023-04-21T03:24:57;3.67;;;3.08;;
17761;SDS011;9005;48.838;10.112;2023-04-21T03:27:24;3.10;;;2.80;;
17761;SDS011;9005;48.838;10.112;2023-04-21T03:29:51;3.05;;;2.75;;
17761;SDS011;9005;48.838;10.112;2023-04-21T03:32:17;3.65;;;3.30;;
17761;SDS011;9005;48.838;10.112;2023-04-21T03:34:44;3.28;;;2.97;;
17761;SDS011;9005;48.838;10.112;2023-04-21T03:37:12;4.70;;;3.55;;
17761;SDS011;9005;48.838;10.112;2023-04-21T03:39:39;3.60;;;3.30;;
17761;SDS011;9005;48.838;10.112;2023-04-21T03:42:05;3.33;;;2.97;;
17761;SDS011;9005;48.838;10.112;2023-04-21T03:44:32;3.70;;;3.28;;
17761;SDS011;9005;48.838;10.112;2023-04-21T03:46:59;3.38;;;2.85;;
17761;SDS011;9005;48.838;10.112;2023-04-21T03:49:27;3.10;;;2.80;;
17761;SDS011;9005;48.838;10.112;2023-04-21T03:51:54;3.58;;;3.28;;
17761;SDS011;9005;48.838;10.112;2023-04-21T03:54:22;3.10;;;2.80;;
17761;SDS011;9005;48.838;10.112;2023-04-21T03:56:48;3.60;;;2.65;;
17761;SDS011;9005;48.838;10.112;2023-04-21T03:59:15;3.47;;;3.17;;
17761;SDS011;9005;48.838;10.112;2023-04-21T04:01:42;2.92;;;2.63;;
17761;SDS011;9005;48.838;10.112;2023-04-21T04:04:08;3.85;;;2.88;;
17761;SDS011;9005;48.838;10.112;2023-04-21T04:06:35;3.90;;;3.15;;
17761;SDS011;9005;48.838;10.112;2023-04-21T04:09:02;3.10;;;2.80;;
17761;SDS011;9005;48.838;10.112;2023-04-21T04:11:30;2.97;;;2.60;;
17761;SDS011;9005;48.838;10.112;2023-04-21T04:13:57;3.30;;;3.00;;
17761;SDS011;9005;48.838;10.112;2023-04-21T04:16:24;3.58;;;2.97;;
17761;SDS011;9005;48.838;10.112;2023-04-21T04:18:52;3.63;;;2.83;;
17761;SDS011;9005;48.838;10.112;2023-04-21T04:21:19;3.20;;;2.63;;
17761;SDS011;9005;48.838;10.112;2023-04-21T04:23:46;3.42;;;2.97;;
17761;SDS011;9005;48.838;10.112;2023-04-21T04:26:15;3.35;;;3.05;;
17761;SDS011;9005;48.838;10.112;2023-04-21T04:28:44;3.15;;;2.63;;
17761;SDS011;9005;48.838;10.112;2023-04-21T04:31:11;3.13;;;2.65;;
17761;SDS011;9005;48.838;10.112;2023-04-21T04:33:39;3.85;;;2.97;;
17761;SDS011;9005;48.838;10.112;2023-04-21T04:36:07;3.42;;;2.88;;
17761;SDS011;9005;48.838;10.112;2023-04-21T04:38:34;3.30;;;2.58;;
17761;SDS011;9005;48.838;10.112;2023-04-21T04:41:01;3.20;;;2.72;;
17761;SDS011;9005;48.838;10.112;2023-04-21T04:43:29;3.10;;;2.80;;
17761;SDS011;9005;48.838;10.112;2023-04-21T04:45:58;3.60;;;3.30;;
17761;SDS011;9005;48.838;10.112;2023-04-21T04:48:25;3.25;;;2.95;;
17761;SDS011;9005;48.838;10.112;2023-04-21T04:50:52;3.45;;;2.80;;
17761;SDS011;9005;48.838;10.112;2023-04-21T04:53:19;4.53;;;3.03;;
17761;SDS011;9005;48.838;10.112;2023-04-21T04:55:45;4.35;;;3.10;;
17761;SDS011;9005;48.838;10.112;2023-04-21T04:58:12;3.53;;;3.05;;
17761;SDS011;9005;48.838;10.112;2023-04-21T05:00:39;3.50;;;3.17;;
17761;SDS011;9005;48.838;10.112;2023-04-21T05:03:07;3.00;;;2.70;;
17761;SDS011;9005;48.838;10.112;2023-04-21T05:05:33;3.15;;;2.85;;
17761;SDS011;9005;48.838;10.112;2023-04-21T05:08:00;4.30;;;3.25;;
17761;SDS011;9005;48.838;10.112;2023-04-21T05:10:27;2.83;;;2.55;;
17761;SDS011;9005;48.838;10.112;2023-04-21T05:12:54;3.97;;;3.53;;
17761;SDS011;9005;48.838;10.112;2023-04-21T05:15:20;4.18;;;3.47;;
17761;SDS011;9005;48.838;10.112;2023-04-21T05:17:47;5.28;;;3.53;;
17761;SDS011;9005;48.838;10.112;2023-04-21T05:20:16;13.63;;;5.05;;
17761;SDS011;9005;48.838;10.112;2023-04-21T05:22:42;54.67;;;6.43;;
17761;SDS011;9005;48.838;10.112;2023-04-21T05:25:09;141.55;;;9.65;;
17761;SDS011;9005;48.838;10.112;2023-04-21T05:27:39;75.60;;;6.97;;
17761;SDS011;9005;48.838;10.112;2023-04-21T05:30:06;146.73;;;10.35;;
17761;SDS011;9005;48.838;10.112;2023-04-21T05:32:33;52.67;;;6.63;;
17761;SDS011;9005;48.838;10.112;2023-04-21T05:35:00;50.22;;;6.95;;
17761;SDS011;9005;48.838;10.112;2023-04-21T05:37:28;12.30;;;5.57;;
17761;SDS011;9005;48.838;10.112;2023-04-21T05:39:55;20.85;;;5.53;;
17761;SDS011;9005;48.838;10.112;2023-04-21T05:42:21;7.05;;;4.53;;
17761;SDS011;9005;48.838;10.112;2023-04-21T05:44:48;5.60;;;4.18;;
17761;SDS011;9005;48.838;10.112;2023-04-21T05:47:15;4.55;;;4.15;;
17761;SDS011;9005;48.838;10.112;2023-04-21T05:49:42;4.63;;;4.10;;
17761;SDS011;9005;48.838;10.112;2023-04-21T05:52:14;6.20;;;4.85;;
17761;SDS011;9005;48.838;10.112;2023-04-21T05:54:42;5.05;;;4.25;;
17761;SDS011;9005;48.838;10.112;2023-04-21T05:57:09;3.70;;;3.20;;
17761;SDS011;9005;48.838;10.112;2023-04-21T05:59:36;4.57;;;3.97;;
17761;SDS011;9005;48.838;10.112;2023-04-21T06:02:04;4.82;;;4.32;;
17761;SDS011;9005;48.838;10.112;2023-04-21T06:04:31;4.65;;;3.88;;
17761;SDS011;9005;48.838;10.112;2023-04-21T06:07:03;3.80;;;3.40;;
17761;SDS011;9005;48.838;10.112;2023-04-21T06:09:30;3.42;;;3.10;;
17761;SDS011;9005;48.838;10.112;2023-04-21T06:11:58;5.28;;;3.58;;
17761;SDS011;9005;48.838;10.112;2023-04-21T06:14:25;8.00;;;3.67;;
17761;SDS011;9005;48.838;10.112;2023-04-21T06:16:52;12.02;;;4.15;;
17761;SDS011;9005;48.838;10.112;2023-04-21T06:19:19;9.23;;;4.03;;
17761;SDS011;9005;48.838;10.112;2023-04-21T06:21:45;4.40;;;4.00;;
17761;SDS011;9005;48.838;10.112;2023-04-21T06:24:12;7.22;;;4.07;;
17761;SDS011;9005;48.838;10.112;2023-04-21T06:26:40;4.70;;;1.95;;
17761;SDS011;9005;48.838;10.112;2023-04-21T06:29:08;7.72;;;4.13;;
17761;SDS011;9005;48.838;10.112;2023-04-21T06:32:08;10.25;;;3.83;;
17761;SDS011;9005;48.838;10.112;2023-04-21T06:34:35;5.60;;;4.75;;
17761;SDS011;9005;48.838;10.112;2023-04-21T06:37:02;5.95;;;2.80;;
17761;SDS011;9005;48.838;10.112;2023-04-21T06:39:29;3.90;;;1.75;;
17761;SDS011;9005;48.838;10.112;2023-04-21T06:41:56;7.13;;;4.63;;
17761;SDS011;9005;48.838;10.112;2023-04-21T06:44:23;7.75;;;5.70;;
17761;SDS011;9005;48.838;10.112;2023-04-21T06:46:49;8.15;;;6.22;;
17761;SDS011;9005;48.838;10.112;2023-04-21T06:49:17;6.38;;;4.38;;
17761;SDS011;9005;48.838;10.112;2023-04-21T06:51:44;7.05;;;6.13;;
17761;SDS011;9005;48.838;10.112;2023-04-21T06:54:11;6.85;;;4.47;;
17761;SDS011;9005;48.838;10.112;2023-04-21T06:56:37;7.20;;;6.47;;
17761;SDS011;9005;48.838;10.112;2023-04-21T06:59:06;6.63;;;5.03;;
17761;SDS011;9005;48.838;10.112;2023-04-21T07:01:33;7.40;;;4.55;;
17761;SDS011;9005;48.838;10.112;2023-04-21T07:04:00;7.38;;;5.28;;
17761;SDS011;9005;48.838;10.112;2023-04-21T07:06:28;8.25;;;6.75;;
17761;SDS011;9005;48.838;10.112;2023-04-21T07:08:55;3.83;;;3.28;;
17761;SDS011;9005;48.838;10.112;2023-04-21T07:11:22;6.07;;;3.20;;
17761;SDS011;9005;48.838;10.112;2023-04-21T07:13:49;6.10;;;3.15;;
17761;SDS011;9005;48.838;10.112;2023-04-21T07:16:15;6.82;;;3.63;;
17761;SDS011;9005;48.838;10.112;2023-04-21T07:18:42;6.50;;;4.40;;
17761;SDS011;9005;48.838;10.112;2023-04-21T07:21:09;6.57;;;4.75;;
17761;SDS011;9005;48.838;10.112;2023-04-21T07:23:37;7.93;;;4.57;;
17761;SDS011;9005;48.838;10.112;2023-04-21T07:26:04;4.47;;;3.35;;
17761;SDS011;9005;48.838;10.112;2023-04-21T07:28:30;8.93;;;4.30;;
17761;SDS011;9005;48.838;10.112;2023-04-21T07:30:57;6.28;;;4.53;;
17761;SDS011;9005;48.838;10.112;2023-04-21T07:33:24;5.88;;;4.57;;
17761;SDS011;9005;48.838;10.112;2023-04-21T07:35:51;6.13;;;4.28;;
17761;SDS011;9005;48.838;10.112;2023-04-21T07:38:17;6.43;;;4.60;;
17761;SDS011;9005;48.838;10.112;2023-04-21T07:40:45;7.82;;;5.63;;
17761;SDS011;9005;48.838;10.112;2023-04-21T07:43:12;6.28;;;3.83;;
17761;SDS011;9005;48.838;10.112;2023-04-21T07:45:39;5.07;;;3.40;;
17761;SDS011;9005;48.838;10.112;2023-04-21T07:48:06;5.55;;;4.18;;
17761;SDS011;9005;48.838;10.112;2023-04-21T07:50:33;5.43;;;4.68;;
17761;SDS011;9005;48.838;10.112;2023-04-21T07:53:00;7.07;;;6.25;;
17761;SDS011;9005;48.838;10.112;2023-04-21T07:55:27;4.72;;;4.20;;
17761;SDS011;9005;48.838;10.112;2023-04-21T07:57:55;5.38;;;4.22;;
17761;SDS011;9005;48.838;10.112;2023-04-21T08:00:22;5.53;;;4.53;;
17761;SDS011;9005;48.838;10.112;2023-04-21T08:02:49;6.07;;;4.60;;
17761;SDS011;9005;48.838;10.112;2023-04-21T08:05:15;4.30;;;3.47;;
17761;SDS011;9005;48.838;10.112;2023-04-21T08:07:42;4.55;;;3.05;;
17761;SDS011;9005;48.838;10.112;2023-04-21T08:10:09;5.13;;;3.33;;
17761;SDS011;9005;48.838;10.112;2023-04-21T08:12:36;4.38;;;3.38;;
17761;SDS011;9005;48.838;10.112;2023-04-21T08:15:05;8.45;;;4.03;;
17761;SDS011;9005;48.838;10.112;2023-04-21T08:17:32;5.97;;;4.18;;
17761;SDS011;9005;48.838;10.112;2023-04-21T08:20:00;7.32;;;5.28;;
17761;SDS011;9005;48.838;10.112;2023-04-21T08:22:27;7.05;;;4.57;;
17761;SDS011;9005;48.838;10.112;2023-04-21T08:24:53;6.28;;;4.80;;
17761;SDS011;9005;48.838;10.112;2023-04-21T08:27:20;4.43;;;2.95;;
17761;SDS011;9005;48.838;10.112;2023-04-21T08:29:47;6.20;;;5.25;;
17761;SDS011;9005;48.838;10.112;2023-04-21T08:32:16;5.65;;;5.15;;
17761;SDS011;9005;48.838;10.112;2023-04-21T08:34:47;6.65;;;4.68;;
17761;SDS011;9005;48.838;10.112;2023-04-21T08:37:15;6.55;;;5.32;;
17761;SDS011;9005;48.838;10.112;2023-04-21T08:39:42;7.47;;;5.38;;
17761;SDS011;9005;48.838;10.112;2023-04-21T08:42:09;6.15;;;4.70;;
17761;SDS011;9005;48.838;10.112;2023-04-21T08:44:37;5.25;;;4.03;;
17761;SDS011;9005;48.838;10.112;2023-04-21T08:47:05;5.05;;;3.92;;
17761;SDS011;9005;48.838;10.112;2023-04-21T08:49:37;4.45;;;3.63;;
17761;SDS011;9005;48.838;10.112;2023-04-21T08:52:05;3.38;;;2.78;;
17761;SDS011;9005;48.838;10.112;2023-04-21T08:54:32;5.18;;;4.47;;
17761;SDS011;9005;48.838;10.112;2023-04-21T08:57:00;5.55;;;3.08;;
17761;SDS011;9005;48.838;10.112;2023-04-21T08:59:28;4.85;;;3.90;;
17761;SDS011;9005;48.838;10.112;2023-04-21T09:02:08;5.25;;;4.03;;
17761;SDS011;9005;48.838;10.112;2023-04-21T09:04:40;4.13;;;3.63;;
17761;SDS011;9005;48.838;10.112;2023-04-21T09:07:08;6.60;;;4.03;;
17761;SDS011;9005;48.838;10.112;2023-04-21T09:12:27;3.03;;;2.72;;
17761;SDS011;9005;48.838;10.112;2023-04-21T09:14:54;4.38;;;3.53;;
17761;SDS011;9005;48.838;10.112;2023-04-21T09:17:26;4.45;;;2.78;;
17761;SDS011;9005;48.838;10.112;2023-04-21T09:19:57;4.18;;;3.70;;
17761;SDS011;9005;48.838;10.112;2023-04-21T09:22:39;4.78;;;3.80;;
17761;SDS011;9005;48.838;10.112;2023-04-21T09:25:06;3.03;;;2.60;;
17761;SDS011;9005;48.838;10.112;2023-04-21T09:27:34;4.28;;;2.92;;
17761;SDS011;9005;48.838;10.112;2023-04-21T09:30:02;5.57;;;3.70;;
17761;SDS011;9005;48.838;10.112;2023-04-21T09:32:34;4.95;;;4.00;;
17761;SDS011;9005;48.838;10.112;2023-04-21T09:35:03;5.15;;;4.45;;
17761;SDS011;9005;48.838;10.112;2023-04-21T09:37:30;3.97;;;2.75;;
17761;SDS011;9005;48.838;10.112;2023-04-21T09:39:58;5.28;;;3.60;;
17761;SDS011;9005;48.838;10.112;2023-04-21T09:42:27;3.20;;;2.58;;
17761;SDS011;9005;48.838;10.112;2023-04-21T09:44:54;4.07;;;2.95;;
17761;SDS011;9005;48.838;10.112;2023-04-21T09:47:21;5.22;;;4.10;;
17761;SDS011;9005;48.838;10.112;2023-04-21T09:49:49;5.60;;;4.88;;
17761;SDS011;9005;48.838;10.112;2023-04-21T09:52:19;4.20;;;3.72;;
17761;SDS011;9005;48.838;10.112;2023-04-21T09:54:48;4.50;;;3.30;;
17761;SDS011;9005;48.838;10.112;2023-04-21T09:57:19;4.70;;;3.28;;
17761;SDS011;9005;48.838;10.112;2023-04-21T09:59:50;4.32;;;3.53;;
17761;SDS011;9005;48.838;10.112;2023-04-21T10:02:21;6.80;;;4.72;;
17761;SDS011;9005;48.838;10.112;2023-04-21T10:04:51;5.18;;;3.88;;
17761;SDS011;9005;48.838;10.112;2023-04-21T10:07:20;4.70;;;3.20;;
17761;SDS011;9005;48.838;10.112;2023-04-21T10:09:48;3.88;;;3.28;;
17761;SDS011;9005;48.838;10.112;2023-04-21T10:12:17;4.80;;;3.10;;
17761;SDS011;9005;48.838;10.112;2023-04-21T10:14:44;3.53;;;3.00;;
17761;SDS011;9005;48.838;10.112;2023-04-21T10:17:11;4.90;;;4.40;;
17761;SDS011;9005;48.838;10.112;2023-04-21T10:19:46;5.22;;;3.17;;
17761;SDS011;9005;48.838;10.112;2023-04-21T10:22:14;4.32;;;3.70;;
17761;SDS011;9005;48.838;10.112;2023-04-21T10:24:54;3.38;;;3.03;;
17761;SDS011;9005;48.838;10.112;2023-04-21T10:27:29;5.22;;;3.90;;
17761;SDS011;9005;48.838;10.112;2023-04-21T10:29:58;2.53;;;1.98;;
17761;SDS011;9005;48.838;10.112;2023-04-21T10:32:38;2.55;;;2.33;;
17761;SDS011;9005;48.838;10.112;2023-04-21T10:35:07;2.78;;;2.05;;
17761;SDS011;9005;48.838;10.112;2023-04-21T10:37:36;3.78;;;2.80;;
17761;SDS011;9005;48.838;10.112;2023-04-21T10:40:03;3.88;;;3.15;;
17761;SDS011;9005;48.838;10.112;2023-04-21T10:42:34;4.93;;;4.43;;
17761;SDS011;9005;48.838;10.112;2023-04-21T10:45:08;4.18;;;3.78;;
17761;SDS011;9005;48.838;10.112;2023-04-21T10:47:40;5.72;;;4.10;;
17761;SDS011;9005;48.838;10.112;2023-04-21T10:50:10;5.72;;;4.50;;
17761;SDS011;9005;48.838;10.112;2023-04-21T10:52:39;4.90;;;4.40;;
17761;SDS011;9005;48.838;10.112;2023-04-21T10:55:10;6.25;;;4.55;;
17761;SDS011;9005;48.838;10.112;2023-04-21T10:57:40;3.90;;;3.50;;
17761;SDS011;9005;48.838;10.112;2023-04-21T11:00:09;4.70;;;4.03;;
17761;SDS011;9005;48.838;10.112;2023-04-21T11:02:39;3.08;;;2.63;;
17761;SDS011;9005;48.838;10.112;2023-04-21T11:05:07;4.97;;;4.30;;
17761;SDS011;9005;48.838;10.112;2023-04-21T11:07:35;3.28;;;2.92;;
17761;SDS011;9005;48.838;10.112;2023-04-21T11:10:03;4.47;;;4.03;;
17761;SDS011;9005;48.838;10.112;2023-04-21T11:12:32;4.22;;;3.58;;
17761;SDS011;9005;48.838;10.112;2023-04-21T11:15:02;4.50;;;3.17;;
17761;SDS011;9005;48.838;10.112;2023-04-21T11:17:32;3.83;;;3.13;;
17761;SDS011;9005;48.838;10.112;2023-04-21T11:19:59;3.55;;;3.22;;
17761;SDS011;9005;48.838;10.112;2023-04-21T11:22:28;3.95;;;3.03;;
17761;SDS011;9005;48.838;10.112;2023-04-21T11:24:55;3.58;;;3.28;;
17761;SDS011;9005;48.838;10.112;2023-04-21T11:27:26;3.78;;;3.03;;
17761;SDS011;9005;48.838;10.112;2023-04-21T11:29:54;3.97;;;3.28;;
17761;SDS011;9005;48.838;10.112;2023-04-21T11:32:22;3.45;;;3.15;;
17761;SDS011;9005;48.838;10.112;2023-04-21T11:34:49;2.22;;;2.03;;
17761;SDS011;9005;48.838;10.112;2023-04-21T11:37:19;3.25;;;2.95;;
17761;SDS011;9005;48.838;10.112;2023-04-21T11:39:48;2.08;;;1.88;;
17761;SDS011;9005;48.838;10.112;2023-04-21T11:42:19;3.78;;;2.67;;
17761;SDS011;9005;48.838;10.112;2023-04-21T11:44:48;3.85;;;2.80;;
17761;SDS011;9005;48.838;10.112;2023-04-21T11:47:15;2.47;;;2.05;;
17761;SDS011;9005;48.838;10.112;2023-04-21T11:49:43;3.80;;;3.08;;
17761;SDS011;9005;48.838;10.112;2023-04-21T11:52:21;2.85;;;2.65;;
17761;SDS011;9005;48.838;10.112;2023-04-21T11:54:56;3.75;;;2.42;;
17761;SDS011;9005;48.838;10.112;2023-04-21T11:57:24;1.60;;;1.50;;
17761;SDS011;9005;48.838;10.112;2023-04-21T11:59:52;3.75;;;3.35;;
17761;SDS011;9005;48.838;10.112;2023-04-21T12:02:20;2.28;;;2.08;;
17761;SDS011;9005;48.838;10.112;2023-04-21T12:04:59;3.65;;;3.10;;
17761;SDS011;9005;48.838;10.112;2023-04-21T12:07:28;2.90;;;2.70;;
17761;SDS011;9005;48.838;10.112;2023-04-21T12:09:55;2.97;;;2.67;;
17761;SDS011;9005;48.838;10.112;2023-04-21T12:12:22;3.15;;;2.85;;
17761;SDS011;9005;48.838;10.112;2023-04-21T12:14:49;3.10;;;2.80;;
17761;SDS011;9005;48.838;10.112;2023-04-21T12:17:18;3.50;;;3.20;;
17761;SDS011;9005;48.838;10.112;2023-04-21T12:19:45;5.38;;;3.47;;
17761;SDS011;9005;48.838;10.112;2023-04-21T12:22:13;3.72;;;3.33;;
17761;SDS011;9005;48.838;10.112;2023-04-21T12:24:41;3.45;;;3.15;;
17761;SDS011;9005;48.838;10.112;2023-04-21T12:27:08;3.60;;;3.10;;
17761;SDS011;9005;48.838;10.112;2023-04-21T12:29:35;3.08;;;2.55;;
17761;SDS011;9005;48.838;10.112;2023-04-21T12:32:03;3.15;;;2.85;;
17761;SDS011;9005;48.838;10.112;2023-04-21T12:34:31;3.35;;;3.05;;
17761;SDS011;9005;48.838;10.112;2023-04-21T12:36:57;3.28;;;2.45;;
17761;SDS011;9005;48.838;10.112;2023-04-21T12:39:24;3.08;;;2.42;;
17761;SDS011;9005;48.838;10.112;2023-04-21T12:41:51;3.10;;;2.80;;
17761;SDS011;9005;48.838;10.112;2023-04-21T12:44:18;2.80;;;2.60;;
17761;SDS011;9005;48.838;10.112;2023-04-21T12:46:45;3.38;;;2.92;;
17761;SDS011;9005;48.838;10.112;2023-04-21T12:49:13;2.85;;;2.42;;
17761;SDS011;9005;48.838;10.112;2023-04-21T12:51:42;2.63;;;2.42;;
17761;SDS011;9005;48.838;10.112;2023-04-21T12:54:09;4.13;;;2.58;;
17761;SDS011;9005;48.838;10.112;2023-04-21T12:56:36;4.95;;;2.67;;
17761;SDS011;9005;48.838;10.112;2023-04-21T12:59:04;1.48;;;1.38;;
17761;SDS011;9005;48.838;10.112;2023-04-21T13:01:31;2.50;;;2.30;;
17761;SDS011;9005;48.838;10.112;2023-04-21T13:03:58;2.35;;;1.90;;
17761;SDS011;9005;48.838;10.112;2023-04-21T13:06:25;4.65;;;2.67;;
17761;SDS011;9005;48.838;10.112;2023-04-21T13:08:54;2.28;;;2.03;;
17761;SDS011;9005;48.838;10.112;2023-04-21T13:11:21;2.33;;;2.13;;
17761;SDS011;9005;48.838;10.112;2023-04-21T13:13:47;2.15;;;1.70;;
17761;SDS011;9005;48.838;10.112;2023-04-21T13:16:14;2.50;;;1.90;;
17761;SDS011;9005;48.838;10.112;2023-04-21T13:18:41;2.00;;;1.55;;
17761;SDS011;9005;48.838;10.112;2023-04-21T13:21:08;0.90;;;0.90;;
17761;SDS011;9005;48.838;10.112;2023-04-21T13:23:35;2.05;;;1.85;;
17761;SDS011;9005;48.838;10.112;2023-04-21T13:26:04;2.35;;;2.00;;
17761;SDS011;9005;48.838;10.112;2023-04-21T13:28:31;2.97;;;2.10;;
17761;SDS011;9005;48.838;10.112;2023-04-21T13:30:58;2.40;;;2.20;;
17761;SDS011;9005;48.838;10.112;2023-04-21T13:33:25;1.88;;;1.67;;
17761;SDS011;9005;48.838;10.112;2023-04-21T13:35:52;1.05;;;1.02;;
17761;SDS011;9005;48.838;10.112;2023-04-21T13:38:19;1.98;;;1.80;;
17761;SDS011;9005;48.838;10.112;2023-04-21T13:40:46;1.85;;;1.50;;
17761;SDS011;9005;48.838;10.112;2023-04-21T13:43:16;2.40;;;1.58;;
17761;SDS011;9005;48.838;10.112;2023-04-21T13:45:43;3.88;;;2.17;;
17761;SDS011;9005;48.838;10.112;2023-04-21T13:48:12;1.60;;;1.50;;
17761;SDS011;9005;48.838;10.112;2023-04-21T13:50:39;5.43;;;1.67;;
17761;SDS011;9005;48.838;10.112;2023-04-21T13:53:06;1.45;;;1.02;;
17761;SDS011;9005;48.838;10.112;2023-04-21T13:55:33;2.22;;;1.42;;
17761;SDS011;9005;48.838;10.112;2023-04-21T13:58:00;1.95;;;1.60;;
17761;SDS011;9005;48.838;10.112;2023-04-21T14:00:28;1.25;;;1.10;;
17761;SDS011;9005;48.838;10.112;2023-04-21T14:02:55;1.52;;;1.35;;
17761;SDS011;9005;48.838;10.112;2023-04-21T14:05:22;2.72;;;1.50;;
17761;SDS011;9005;48.838;10.112;2023-04-21T14:07:49;1.48;;;1.38;;
17761;SDS011;9005;48.838;10.112;2023-04-21T14:10:16;1.13;;;0.85;;
17761;SDS011;9005;48.838;10.112;2023-04-21T14:12:43;1.30;;;1.20;;
17761;SDS011;9005;48.838;10.112;2023-04-21T14:15:13;1.67;;;1.33;;
17761;SDS011;9005;48.838;10.112;2023-04-21T14:17:41;2.80;;;1.90;;
17761;SDS011;9005;48.838;10.112;2023-04-21T14:20:09;2.08;;;1.88;;
17761;SDS011;9005;48.838;10.112;2023-04-21T14:22:36;3.03;;;1.67;;
17761;SDS011;9005;48.838;10.112;2023-04-21T14:25:03;1.73;;;1.20;;
17761;SDS011;9005;48.838;10.112;2023-04-21T14:27:31;1.30;;;1.20;;
17761;SDS011;9005;48.838;10.112;2023-04-21T14:29:58;2.13;;;1.30;;
17761;SDS011;9005;48.838;10.112;2023-04-21T14:32:25;1.42;;;1.30;;
17761;SDS011;9005;48.838;10.112;2023-04-21T14:34:53;2.88;;;1.58;;
17761;SDS011;9005;48.838;10.112;2023-04-21T14:37:22;2.80;;;1.70;;
17761;SDS011;9005;48.838;10.112;2023-04-21T14:39:50;1.38;;;1.27;;
17761;SDS011;9005;48.838;10.112;2023-04-21T14:42:17;1.88;;;1.60;;
17761;SDS011;9005;48.838;10.112;2023-04-21T14:44:44;1.90;;;1.30;;
17761;SDS011;9005;48.838;10.112;2023-04-21T14:47:11;1.52;;;1.33;;
17761;SDS011;9005;48.838;10.112;2023-04-21T14:49:38;1.65;;;1.50;;
17761;SDS011;9005;48.838;10.112;2023-04-21T14:52:06;1.83;;;1.10;;
17761;SDS011;9005;48.838;10.112;2023-04-21T14:54:33;1.55;;;1.35;;